createdAt,value
2019-05-07T00:00:44.312Z,3.90
2019-05-07T00:01:44.226Z,3.84
2019-05-07T00:02:44.147Z,3.77
2019-05-07T00:03:44.073Z,3.72
2019-05-07T00:04:43.987Z,3.65
2019-05-07T00:05:43.942Z,3.57
2019-05-07T00:06:43.818Z,3.50
2019-05-07T00:07:43.736Z,3.54
2019-05-07T00:08:44.997Z,3.54
2019-05-07T00:09:43.664Z,3.53
2019-05-07T00:10:43.487Z,3.53
2019-05-07T00:11:43.486Z,3.43
2019-05-07T00:12:43.337Z,3.41
2019-05-07T00:13:44.411Z,3.39
2019-05-07T00:14:57.346Z,3.31
2019-05-07T00:15:43.076Z,3.41
2019-05-07T00:16:43.097Z,3.37
2019-05-07T00:17:42.960Z,3.31
2019-05-07T00:18:43.106Z,3.34
2019-05-07T00:19:43.304Z,3.22
2019-05-07T00:20:42.722Z,3.16
2019-05-07T00:21:42.588Z,3.21
2019-05-07T00:22:42.531Z,3.11
2019-05-07T00:23:43.308Z,3.07
2019-05-07T00:24:42.789Z,3.01
2019-05-07T00:25:42.389Z,3.07
2019-05-07T00:26:42.991Z,2.99
2019-05-07T00:27:42.690Z,3.01
2019-05-07T00:28:43.257Z,3.06
2019-05-07T00:29:42.895Z,2.96
2019-05-07T00:30:42.606Z,2.96
2019-05-07T00:31:42.152Z,2.95
2019-05-07T00:32:42.380Z,2.86
2019-05-07T00:33:43.207Z,2.81
2019-05-07T00:34:42.437Z,2.78
2019-05-07T00:35:42.929Z,2.78
2019-05-07T00:36:42.069Z,2.78
2019-05-07T00:37:43.130Z,2.74
2019-05-07T00:38:42.737Z,2.63
2019-05-07T00:39:42.439Z,2.68
2019-05-07T00:40:42.552Z,2.66
2019-05-07T00:41:42.699Z,2.71
2019-05-07T00:42:42.023Z,2.62
2019-05-07T00:43:42.746Z,2.66
2019-05-07T00:44:42.231Z,2.67
2019-05-07T00:45:42.109Z,2.66
2019-05-07T00:46:42.620Z,2.50
2019-05-07T00:47:42.460Z,2.53
2019-05-07T00:48:42.239Z,2.49
2019-05-07T00:49:42.504Z,2.44
2019-05-07T00:50:42.040Z,2.35
2019-05-07T00:51:42.284Z,2.37
2019-05-07T00:52:40.067Z,2.48
2019-05-07T00:53:39.952Z,2.31
2019-05-07T00:54:41.755Z,2.38
2019-05-07T00:55:42.145Z,2.39
2019-05-07T00:56:39.789Z,2.34
2019-05-07T00:57:39.616Z,2.38
2019-05-07T00:58:39.599Z,2.41
2019-05-07T00:59:39.451Z,2.38
2019-05-07T01:00:39.406Z,2.24
2019-05-07T01:01:39.288Z,2.30
2019-05-07T01:02:39.320Z,2.20
2019-05-07T01:03:39.125Z,2.26
2019-05-07T01:04:39.048Z,2.28
2019-05-07T01:05:38.954Z,2.20
2019-05-07T01:06:38.903Z,2.21
2019-05-07T01:07:38.787Z,2.19
2019-05-07T01:08:38.710Z,2.26
2019-05-07T01:09:38.661Z,2.30
2019-05-07T01:10:38.543Z,2.31
2019-05-07T01:11:38.459Z,2.30
2019-05-07T01:12:38.380Z,2.30
2019-05-07T01:13:38.289Z,2.31
2019-05-07T01:14:38.213Z,2.30
2019-05-07T01:15:38.179Z,2.19
2019-05-07T01:16:38.046Z,2.17
2019-05-07T01:17:37.963Z,2.17
2019-05-07T01:18:37.996Z,2.13
2019-05-07T01:19:37.802Z,2.16
2019-05-07T01:20:37.717Z,2.10
2019-05-07T01:21:37.719Z,2.10
2019-05-07T01:22:37.551Z,2.09
2019-05-07T01:23:37.466Z,2.10
2019-05-07T01:24:37.427Z,2.03
2019-05-07T01:25:37.303Z,2.12
2019-05-07T01:26:37.214Z,2.06
2019-05-07T01:27:37.238Z,2.03
2019-05-07T01:28:37.052Z,2.10
2019-05-07T01:29:36.970Z,2.13
2019-05-07T01:30:36.956Z,2.13
2019-05-07T01:31:36.809Z,2.05
2019-05-07T01:32:36.712Z,2.09
2019-05-07T01:33:36.643Z,2.06
2019-05-07T01:34:36.550Z,2.06
2019-05-07T01:35:36.467Z,2.02
2019-05-07T01:36:36.489Z,2.06
2019-05-07T01:37:36.300Z,1.98
2019-05-07T01:38:36.218Z,2.05
2019-05-07T01:39:36.200Z,2.09
2019-05-07T01:40:36.052Z,2.05
2019-05-07T01:41:35.971Z,1.95
2019-05-07T01:42:36.702Z,2.06
2019-05-07T01:43:35.799Z,2.02
2019-05-07T01:44:35.723Z,1.95
2019-05-07T01:45:45.456Z,1.95
2019-05-07T01:46:35.554Z,1.99
2019-05-07T01:47:35.469Z,1.99
2019-05-07T01:48:35.386Z,1.98
2019-05-07T01:49:35.346Z,1.98
2019-05-07T01:50:35.229Z,1.99
2019-05-07T01:51:35.260Z,2.03
2019-05-07T01:52:35.053Z,1.87
2019-05-07T01:53:34.974Z,1.79
2019-05-07T01:54:34.896Z,1.90
2019-05-07T01:55:34.873Z,1.87
2019-05-07T01:56:34.728Z,1.82
2019-05-07T01:57:34.684Z,1.83
2019-05-07T01:58:34.557Z,1.79
2019-05-07T01:59:34.475Z,1.84
2019-05-07T02:00:34.505Z,1.86
2019-05-07T02:01:35.909Z,1.90
2019-05-07T02:02:34.223Z,1.92
2019-05-07T02:03:34.217Z,1.87
2019-05-07T02:04:34.055Z,1.77
2019-05-07T02:05:33.980Z,1.84
2019-05-07T02:06:33.930Z,1.84
2019-05-07T02:07:33.818Z,1.82
2019-05-07T02:08:33.729Z,1.84
2019-05-07T02:09:34.134Z,1.82
2019-05-07T02:10:33.652Z,1.72
2019-05-07T02:11:33.476Z,1.74
2019-05-07T02:12:33.459Z,1.64
2019-05-07T02:13:33.898Z,1.64
2019-05-07T02:14:33.228Z,1.58
2019-05-07T02:15:33.272Z,1.56
2019-05-07T02:16:33.059Z,1.62
2019-05-07T02:17:32.986Z,1.58
2019-05-07T02:18:32.901Z,1.59
2019-05-07T02:19:33.156Z,1.54
2019-05-07T02:20:32.725Z,1.48
2019-05-07T02:21:33.045Z,1.55
2019-05-07T02:22:32.561Z,1.46
2019-05-07T02:23:33.054Z,1.38
2019-05-07T02:24:33.880Z,1.48
2019-05-07T02:25:32.870Z,1.44
2019-05-07T02:26:32.307Z,1.38
2019-05-07T02:27:32.831Z,1.44
2019-05-07T02:28:32.907Z,1.44
2019-05-07T02:29:32.562Z,1.43
2019-05-07T02:30:34.907Z,1.44
2019-05-07T02:31:33.778Z,1.41
2019-05-07T02:32:33.491Z,1.46
2019-05-07T02:33:34.872Z,1.52
2019-05-07T02:34:34.231Z,1.50
2019-05-07T02:35:33.246Z,1.50
2019-05-07T02:36:33.956Z,1.52
2019-05-07T02:37:42.315Z,1.54
2019-05-07T02:38:33.978Z,1.47
2019-05-07T02:39:33.283Z,1.47
2019-05-07T02:40:33.809Z,1.40
2019-05-07T02:41:33.041Z,1.40
2019-05-07T02:42:33.579Z,1.36
2019-05-07T02:43:33.488Z,1.41
2019-05-07T02:44:32.472Z,1.43
2019-05-07T02:45:33.251Z,1.47
2019-05-07T02:46:32.990Z,1.50
2019-05-07T02:47:33.243Z,1.54
2019-05-07T02:48:33.097Z,1.48
2019-05-07T02:49:32.613Z,1.47
2019-05-07T02:50:32.721Z,1.46
2019-05-07T02:51:33.140Z,1.48
2019-05-07T02:52:32.398Z,1.50
2019-05-07T02:53:29.972Z,1.48
2019-05-07T02:54:32.606Z,1.52
2019-05-07T02:55:29.806Z,1.46
2019-05-07T02:56:29.729Z,1.44
2019-05-07T02:57:29.672Z,1.41
2019-05-07T02:58:32.860Z,1.44
2019-05-07T02:59:29.479Z,1.32
2019-05-07T03:00:29.511Z,1.32
2019-05-07T03:01:29.308Z,1.26
2019-05-07T03:02:29.224Z,1.29
2019-05-07T03:03:29.204Z,1.28
2019-05-07T03:04:29.055Z,1.29
2019-05-07T03:05:28.975Z,1.29
2019-05-07T03:06:28.917Z,1.38
2019-05-07T03:07:28.803Z,1.34
2019-05-07T03:08:28.719Z,1.29
2019-05-07T03:09:28.643Z,1.26
2019-05-07T03:10:28.656Z,1.32
2019-05-07T03:11:28.470Z,1.23
2019-05-07T03:12:28.442Z,1.25
2019-05-07T03:13:28.300Z,1.23
2019-05-07T03:14:28.219Z,1.16
2019-05-07T03:15:28.137Z,1.19
2019-05-07T03:16:40.025Z,1.10
2019-05-07T03:17:28.069Z,1.12
2019-05-07T03:18:27.886Z,1.11
2019-05-07T03:19:27.877Z,1.10
2019-05-07T03:20:27.722Z,1.12
2019-05-07T03:21:27.632Z,1.07
2019-05-07T03:22:27.591Z,1.08
2019-05-07T03:23:27.495Z,1.18
2019-05-07T03:24:27.408Z,1.18
2019-05-07T03:25:27.423Z,1.19
2019-05-07T03:26:27.314Z,1.18
2019-05-07T03:27:27.133Z,1.15
2019-05-07T03:28:27.124Z,1.16
2019-05-07T03:29:27.025Z,1.16
2019-05-07T03:30:26.911Z,1.26
2019-05-07T03:31:26.861Z,1.26
2019-05-07T03:32:28.178Z,1.25
2019-05-07T03:33:27.118Z,1.25
2019-05-07T03:34:26.649Z,1.28
2019-05-07T03:35:27.811Z,1.29
2019-05-07T03:36:26.417Z,1.26
2019-05-07T03:37:26.366Z,1.28
2019-05-07T03:38:26.270Z,1.28
2019-05-07T03:39:26.128Z,1.22
2019-05-07T03:40:26.057Z,1.28
2019-05-07T03:41:25.982Z,1.29
2019-05-07T03:42:25.880Z,1.26
2019-05-07T03:43:25.893Z,1.28
2019-05-07T03:44:25.800Z,1.29
2019-05-07T03:45:25.624Z,1.29
2019-05-07T03:46:25.607Z,1.28
2019-05-07T03:47:25.515Z,1.20
2019-05-07T03:48:25.377Z,1.28
2019-05-07T03:49:25.324Z,1.18
2019-05-07T03:50:25.323Z,1.12
2019-05-07T03:51:25.124Z,1.20
2019-05-07T03:52:25.051Z,1.18
2019-05-07T03:53:24.961Z,1.08
2019-05-07T03:54:24.879Z,1.00
2019-05-07T03:55:24.794Z,0.92
2019-05-07T03:56:24.702Z,0.94
2019-05-07T03:57:24.623Z,0.92
2019-05-07T03:58:24.567Z,0.86
2019-05-07T03:59:24.454Z,0.89
2019-05-07T04:00:24.375Z,0.84
2019-05-07T04:01:24.299Z,0.83
2019-05-07T04:02:24.285Z,0.79
2019-05-07T04:03:24.805Z,0.82
2019-05-07T04:04:24.095Z,0.93
2019-05-07T04:05:23.997Z,0.84
2019-05-07T04:06:23.868Z,0.84
2019-05-07T04:07:23.810Z,1.01
2019-05-07T04:08:24.080Z,0.93
2019-05-07T04:09:24.273Z,1.00
2019-05-07T04:10:23.624Z,1.00
2019-05-07T04:11:23.535Z,1.00
2019-05-07T04:12:24.115Z,0.97
2019-05-07T04:13:24.201Z,0.92
2019-05-07T04:14:23.350Z,0.98
2019-05-07T04:15:23.454Z,0.93
2019-05-07T04:16:23.932Z,1.05
2019-05-07T04:17:26.724Z,1.08
2019-05-07T04:18:23.589Z,1.07
2019-05-07T04:19:23.541Z,1.11
2019-05-07T04:20:23.942Z,1.18
2019-05-07T04:21:23.331Z,1.11
2019-05-07T04:22:26.414Z,1.10
2019-05-07T04:23:23.352Z,1.10
2019-05-07T04:24:23.549Z,1.07
2019-05-07T04:25:23.944Z,1.02
2019-05-07T04:26:23.276Z,0.93
2019-05-07T04:27:23.884Z,0.98
2019-05-07T04:28:23.589Z,1.02
2019-05-07T04:29:23.151Z,0.97
2019-05-07T04:30:23.634Z,0.98
2019-05-07T04:31:22.967Z,0.83
2019-05-07T04:32:23.194Z,0.93
2019-05-07T04:33:23.660Z,0.84
2019-05-07T04:34:23.799Z,0.93
2019-05-07T04:35:24.277Z,0.79
2019-05-07T04:36:23.020Z,0.79
2019-05-07T04:37:23.998Z,0.84
2019-05-07T04:38:23.748Z,0.87
2019-05-07T04:39:23.164Z,0.72
2019-05-07T04:40:23.980Z,0.86
2019-05-07T04:41:23.378Z,0.80
2019-05-07T04:42:24.020Z,0.86
2019-05-07T04:43:23.295Z,0.89
2019-05-07T04:44:23.269Z,0.90
2019-05-07T04:45:23.174Z,1.01
2019-05-07T04:46:23.321Z,0.93
2019-05-07T04:47:34.448Z,0.90
2019-05-07T04:48:23.019Z,0.92
2019-05-07T04:49:20.262Z,0.93
2019-05-07T04:50:37.890Z,1.02
2019-05-07T04:51:23.056Z,1.11
2019-05-07T04:52:20.124Z,1.07
2019-05-07T04:53:23.364Z,1.11
2019-05-07T04:54:19.939Z,1.18
2019-05-07T04:55:22.741Z,1.19
2019-05-07T04:56:19.675Z,1.19
2019-05-07T04:57:19.591Z,1.16
2019-05-07T04:58:23.336Z,1.20
2019-05-07T04:59:19.558Z,1.12
2019-05-07T05:00:19.352Z,1.07
2019-05-07T05:01:19.367Z,1.05
2019-05-07T05:02:19.274Z,1.07
2019-05-07T05:03:19.091Z,1.16
2019-05-07T05:04:26.929Z,1.23
2019-05-07T05:05:18.942Z,1.15
2019-05-07T05:06:18.838Z,1.23
2019-05-07T05:07:18.907Z,1.19
2019-05-07T05:08:18.803Z,1.26
2019-05-07T05:09:18.629Z,1.28
2019-05-07T05:10:18.613Z,1.25
2019-05-07T05:11:18.514Z,1.28
2019-05-07T05:12:18.348Z,1.30
2019-05-07T05:13:18.325Z,1.37
2019-05-07T05:14:18.231Z,1.37
2019-05-07T05:15:18.094Z,1.36
2019-05-07T05:16:18.061Z,1.40
2019-05-07T05:17:17.942Z,1.47
2019-05-07T05:18:17.840Z,1.47
2019-05-07T05:19:17.756Z,1.48
2019-05-07T05:20:17.771Z,1.50
2019-05-07T05:21:17.579Z,1.54
2019-05-07T05:22:17.572Z,1.58
2019-05-07T05:23:17.571Z,1.62
2019-05-07T05:24:17.334Z,1.65
2019-05-07T05:25:17.332Z,1.74
2019-05-07T05:26:17.293Z,1.79
2019-05-07T05:27:17.074Z,1.76
2019-05-07T05:28:17.100Z,1.76
2019-05-07T05:29:17.008Z,1.84
2019-05-07T05:30:16.833Z,1.82
2019-05-07T05:31:16.820Z,1.83
2019-05-07T05:32:16.720Z,1.86
2019-05-07T05:33:16.580Z,1.90
2019-05-07T05:34:16.526Z,1.95
2019-05-07T05:35:16.478Z,1.99
2019-05-07T05:36:16.325Z,2.12
2019-05-07T05:37:16.350Z,2.12
2019-05-07T05:38:16.194Z,2.12
2019-05-07T05:39:16.077Z,2.06
2019-05-07T05:40:16.156Z,2.12
2019-05-07T05:41:15.911Z,2.06
2019-05-07T05:42:15.965Z,2.14
2019-05-07T05:43:15.736Z,2.05
2019-05-07T05:44:15.657Z,2.16
2019-05-07T05:45:16.367Z,2.13
2019-05-07T05:46:15.583Z,2.23
2019-05-07T05:47:15.405Z,2.20
2019-05-07T05:48:15.499Z,2.30
2019-05-07T05:49:15.233Z,2.34
2019-05-07T05:50:15.158Z,2.38
2019-05-07T05:51:15.078Z,2.39
2019-05-07T05:52:15.112Z,2.41
2019-05-07T05:53:14.903Z,2.38
2019-05-07T05:54:14.920Z,2.39
2019-05-07T05:55:14.744Z,2.42
2019-05-07T05:56:14.655Z,2.59
2019-05-07T05:57:14.573Z,2.48
2019-05-07T05:58:14.643Z,2.48
2019-05-07T05:59:24.209Z,2.63
2019-05-07T06:00:14.324Z,2.68
2019-05-07T06:01:14.293Z,2.67
2019-05-07T06:02:14.155Z,2.85
2019-05-07T06:03:14.164Z,2.81
2019-05-07T06:04:13.984Z,2.77
2019-05-07T06:05:13.909Z,2.86
2019-05-07T06:06:13.819Z,2.91
2019-05-07T06:07:14.597Z,2.91
2019-05-07T06:08:13.658Z,3.01
2019-05-07T06:09:13.700Z,3.04
2019-05-07T06:10:13.490Z,3.01
2019-05-07T06:11:13.424Z,3.04
2019-05-07T06:12:13.326Z,3.17
2019-05-07T06:13:13.412Z,3.11
2019-05-07T06:14:13.155Z,3.11
2019-05-07T06:15:13.223Z,3.21
2019-05-07T06:16:12.991Z,3.29
2019-05-07T06:17:13.112Z,3.31
2019-05-07T06:18:21.099Z,3.43
2019-05-07T06:19:13.028Z,3.44
2019-05-07T06:20:12.654Z,3.46
2019-05-07T06:21:12.709Z,3.59
2019-05-07T06:22:12.867Z,3.64
2019-05-07T06:23:13.001Z,3.61
2019-05-07T06:24:12.323Z,3.62
2019-05-07T06:25:14.864Z,3.75
2019-05-07T06:26:12.746Z,3.79
2019-05-07T06:27:12.337Z,3.75
2019-05-07T06:28:12.648Z,3.82
2019-05-07T06:29:11.995Z,3.90
2019-05-07T06:30:12.193Z,4.04
2019-05-07T06:31:12.645Z,4.05
2019-05-07T06:32:12.200Z,4.16
2019-05-07T06:33:12.416Z,4.23
2019-05-07T06:34:12.446Z,4.23
2019-05-07T06:35:12.266Z,4.32
2019-05-07T06:36:12.531Z,4.34
2019-05-07T06:37:11.931Z,4.38
2019-05-07T06:38:12.459Z,4.52
2019-05-07T06:39:12.564Z,4.56
2019-05-07T06:40:12.173Z,4.69
2019-05-07T06:41:12.143Z,4.58
2019-05-07T06:42:12.667Z,4.76
2019-05-07T06:43:12.416Z,4.85
2019-05-07T06:44:12.691Z,4.91
2019-05-07T06:45:12.354Z,5.02
2019-05-07T06:46:12.415Z,5.08
2019-05-07T06:47:12.940Z,5.17
2019-05-07T06:48:12.489Z,5.24
2019-05-07T06:49:12.531Z,5.31
2019-05-07T06:50:12.384Z,5.35
2019-05-07T06:51:12.419Z,5.49
2019-05-07T06:52:12.112Z,5.54
2019-05-07T06:53:11.904Z,5.59
2019-05-07T06:54:09.844Z,5.62
2019-05-07T06:55:12.067Z,5.72
2019-05-07T06:56:12.040Z,5.85
2019-05-07T06:57:09.725Z,5.93
2019-05-07T06:58:09.509Z,6.06
2019-05-07T06:59:09.535Z,6.24
2019-05-07T07:00:09.347Z,6.34
2019-05-07T07:01:11.954Z,6.39
2019-05-07T07:02:09.182Z,6.42
2019-05-07T07:03:09.275Z,6.65
2019-05-07T07:04:09.020Z,6.66
2019-05-07T07:05:08.962Z,6.73
2019-05-07T07:06:08.851Z,6.90
2019-05-07T07:07:22.342Z,7.01
2019-05-07T07:08:08.696Z,7.06
2019-05-07T07:09:08.788Z,7.17
2019-05-07T07:10:08.534Z,7.30
2019-05-07T07:11:08.593Z,7.38
2019-05-07T07:12:08.363Z,7.44
2019-05-07T07:13:08.322Z,7.59
2019-05-07T07:14:08.203Z,7.53
2019-05-07T07:15:08.236Z,7.70
2019-05-07T07:16:08.034Z,7.73
2019-05-07T07:17:08.120Z,7.83
2019-05-07T07:18:07.877Z,7.96
2019-05-07T07:19:07.929Z,7.94
2019-05-07T07:20:07.710Z,8.15
2019-05-07T07:21:07.739Z,8.12
2019-05-07T07:22:07.543Z,8.24
2019-05-07T07:23:07.649Z,8.25
2019-05-07T07:24:07.378Z,8.22
2019-05-07T07:25:07.474Z,8.40
2019-05-07T07:26:07.222Z,8.50
2019-05-07T07:27:07.153Z,8.62
2019-05-07T07:28:07.171Z,8.77
2019-05-07T07:29:06.987Z,8.76
2019-05-07T07:30:06.902Z,8.90
2019-05-07T07:31:06.991Z,8.91
2019-05-07T07:32:06.739Z,9.10
2019-05-07T07:33:06.657Z,9.13
2019-05-07T07:34:06.704Z,9.10
2019-05-07T07:35:06.490Z,9.31
2019-05-07T07:36:06.411Z,9.38
2019-05-07T07:37:10.971Z,9.61
2019-05-07T07:38:06.253Z,9.71
2019-05-07T07:39:06.170Z,9.67
2019-05-07T07:40:06.237Z,9.79
2019-05-07T07:41:06.007Z,9.96
2019-05-07T07:42:05.928Z,9.98
2019-05-07T07:43:07.167Z,10.11
2019-05-07T07:44:05.768Z,10.15
2019-05-07T07:45:05.688Z,10.39
2019-05-07T07:46:05.766Z,10.46
2019-05-07T07:47:05.527Z,10.43
2019-05-07T07:48:05.449Z,10.49
2019-05-07T07:49:10.978Z,10.59
2019-05-07T07:50:05.291Z,10.66
2019-05-07T07:51:05.214Z,10.83
2019-05-07T07:52:05.298Z,10.88
2019-05-07T07:53:05.050Z,10.87
2019-05-07T07:54:04.967Z,11.05
2019-05-07T07:55:05.018Z,11.06
2019-05-07T07:56:04.812Z,11.13
2019-05-07T07:57:04.736Z,11.11
2019-05-07T07:58:04.822Z,11.26
2019-05-07T07:59:04.576Z,11.43
2019-05-07T08:00:04.498Z,11.51
2019-05-07T08:01:04.532Z,11.60
2019-05-07T08:02:04.333Z,11.60
2019-05-07T08:03:04.254Z,11.69
2019-05-07T08:04:04.354Z,11.71
2019-05-07T08:05:04.095Z,11.59
2019-05-07T08:06:04.015Z,11.57
2019-05-07T08:07:04.073Z,11.53
2019-05-07T08:08:03.865Z,11.43
2019-05-07T08:09:03.776Z,11.64
2019-05-07T08:10:03.882Z,11.54
2019-05-07T08:11:03.618Z,11.68
2019-05-07T08:12:03.747Z,11.86
2019-05-07T08:13:03.598Z,11.83
2019-05-07T08:14:03.385Z,11.86
2019-05-07T08:15:14.514Z,11.95
2019-05-07T08:16:03.242Z,12.15
2019-05-07T08:17:03.322Z,12.15
2019-05-07T08:18:03.085Z,12.21
2019-05-07T08:19:03.095Z,12.23
2019-05-07T08:20:02.916Z,12.21
2019-05-07T08:21:02.832Z,12.31
2019-05-07T08:22:03.167Z,12.36
2019-05-07T08:23:03.057Z,12.49
2019-05-07T08:24:02.911Z,12.49
2019-05-07T08:25:02.692Z,12.51
2019-05-07T08:26:02.640Z,12.61
2019-05-07T08:27:02.671Z,12.71
2019-05-07T08:28:02.950Z,12.82
2019-05-07T08:29:02.922Z,12.96
2019-05-07T08:30:02.939Z,12.89
2019-05-07T08:31:02.961Z,13.04
2019-05-07T08:32:02.369Z,13.22
2019-05-07T08:33:02.225Z,13.29
2019-05-07T08:34:02.147Z,13.36
2019-05-07T08:35:02.419Z,13.33
2019-05-07T08:36:02.682Z,13.25
2019-05-07T08:37:01.956Z,13.09
2019-05-07T08:38:02.320Z,12.74
2019-05-07T08:39:02.628Z,12.59
2019-05-07T08:40:03.059Z,12.66
2019-05-07T08:41:02.729Z,12.56
2019-05-07T08:42:02.055Z,12.59
2019-05-07T08:43:03.052Z,12.59
2019-05-07T08:44:11.245Z,12.71
2019-05-07T08:45:02.934Z,12.82
2019-05-07T08:46:02.653Z,12.99
2019-05-07T08:47:02.695Z,13.04
2019-05-07T08:48:02.087Z,13.10
2019-05-07T08:49:01.943Z,13.25
2019-05-07T08:50:02.837Z,13.29
2019-05-07T08:51:02.425Z,13.44
2019-05-07T08:52:03.054Z,13.32
2019-05-07T08:53:02.668Z,13.38
2019-05-07T08:54:02.568Z,13.52
2019-05-07T08:55:02.130Z,13.52
2019-05-07T08:56:00.100Z,13.66
2019-05-07T08:57:01.914Z,13.74
2019-05-07T08:58:02.192Z,13.70
2019-05-07T08:59:01.988Z,13.68
2019-05-07T09:00:01.695Z,13.65
2019-05-07T09:00:59.931Z,13.47
2019-05-07T09:01:59.635Z,13.44
2019-05-07T09:03:01.593Z,13.47
2019-05-07T09:03:59.651Z,13.38
2019-05-07T09:04:59.397Z,13.37
2019-05-07T09:05:59.320Z,13.37
2019-05-07T09:06:59.468Z,13.15
2019-05-07T09:07:59.168Z,13.29
2019-05-07T09:08:59.088Z,13.22
2019-05-07T09:09:59.075Z,13.25
2019-05-07T09:10:58.938Z,13.17
2019-05-07T09:11:58.858Z,13.18
2019-05-07T09:12:58.993Z,13.29
2019-05-07T09:13:58.702Z,13.14
2019-05-07T09:14:58.626Z,13.17
2019-05-07T09:15:58.559Z,13.22
2019-05-07T09:16:58.610Z,13.18
2019-05-07T09:17:58.615Z,13.28
2019-05-07T09:18:58.316Z,13.21
2019-05-07T09:19:58.847Z,13.29
2019-05-07T09:20:58.328Z,13.19
2019-05-07T09:21:58.080Z,13.14
2019-05-07T09:22:58.138Z,13.14
2019-05-07T09:23:57.940Z,13.14
2019-05-07T09:24:57.935Z,13.10
2019-05-07T09:25:57.772Z,13.03
2019-05-07T09:26:57.701Z,12.94
2019-05-07T09:27:57.622Z,12.91
2019-05-07T09:28:57.668Z,12.86
2019-05-07T09:29:57.574Z,12.78
2019-05-07T09:30:57.385Z,12.85
2019-05-07T09:31:57.383Z,12.78
2019-05-07T09:32:57.238Z,12.78
2019-05-07T09:33:57.191Z,12.64
2019-05-07T09:34:57.074Z,12.56
2019-05-07T09:35:57.000Z,12.60
2019-05-07T09:36:57.005Z,12.59
2019-05-07T09:37:56.843Z,12.49
2019-05-07T09:38:59.303Z,12.59
2019-05-07T09:39:56.721Z,12.56
2019-05-07T09:40:57.087Z,12.63
2019-05-07T09:41:56.529Z,12.73
2019-05-07T09:42:56.454Z,12.85
2019-05-07T09:43:57.058Z,12.99
2019-05-07T09:44:56.303Z,13.06
2019-05-07T09:45:56.338Z,13.15
2019-05-07T09:46:56.151Z,13.11
2019-05-07T09:47:56.066Z,13.22
2019-05-07T09:48:55.987Z,13.36
2019-05-07T09:50:04.628Z,13.37
2019-05-07T09:50:55.834Z,13.43
2019-05-07T09:51:55.861Z,13.48
2019-05-07T09:52:55.677Z,13.47
2019-05-07T09:53:55.611Z,13.45
2019-05-07T09:54:55.528Z,13.53
2019-05-07T09:55:55.501Z,13.76
2019-05-07T09:56:55.368Z,13.74
2019-05-07T09:57:55.408Z,13.98
2019-05-07T09:58:55.216Z,14.11
2019-05-07T09:59:55.139Z,14.39
2019-05-07T10:00:55.065Z,14.39
2019-05-07T10:01:55.026Z,14.57
2019-05-07T10:02:56.762Z,14.83
2019-05-07T10:03:54.836Z,14.88
2019-05-07T10:04:54.865Z,14.80
2019-05-07T10:05:54.747Z,15.02
2019-05-07T10:06:54.602Z,15.06
2019-05-07T10:07:54.634Z,15.10
2019-05-07T10:08:54.551Z,15.13
2019-05-07T10:09:54.366Z,14.84
2019-05-07T10:10:54.374Z,14.69
2019-05-07T10:11:54.262Z,14.47
2019-05-07T10:12:54.138Z,14.39
2019-05-07T10:13:54.191Z,14.31
2019-05-07T10:14:54.098Z,14.32
2019-05-07T10:15:53.919Z,14.20
2019-05-07T10:16:53.883Z,14.05
2019-05-07T10:17:53.755Z,13.98
2019-05-07T10:18:53.826Z,13.92
2019-05-07T10:19:53.609Z,13.99
2019-05-07T10:20:53.530Z,14.01
2019-05-07T10:21:53.454Z,14.02
2019-05-07T10:22:53.409Z,14.09
2019-05-07T10:23:53.411Z,14.11
2019-05-07T10:24:53.226Z,14.24
2019-05-07T10:25:53.249Z,14.17
2019-05-07T10:26:53.271Z,14.20
2019-05-07T10:27:53.330Z,14.20
2019-05-07T10:28:52.963Z,14.21
2019-05-07T10:29:53.066Z,14.21
2019-05-07T10:30:52.876Z,14.17
2019-05-07T10:31:52.851Z,14.20
2019-05-07T10:32:52.860Z,14.09
2019-05-07T10:33:52.546Z,14.13
2019-05-07T10:34:52.626Z,14.11
2019-05-07T10:35:52.862Z,14.10
2019-05-07T10:36:52.475Z,13.99
2019-05-07T10:37:52.861Z,13.98
2019-05-07T10:38:52.152Z,13.94
2019-05-07T10:39:52.088Z,13.99
2019-05-07T10:40:52.125Z,13.95
2019-05-07T10:41:52.028Z,14.02
2019-05-07T10:42:52.075Z,13.98
2019-05-07T10:43:52.022Z,14.02
2019-05-07T10:44:52.454Z,14.02
2019-05-07T10:45:52.107Z,14.11
2019-05-07T10:46:52.588Z,14.02
2019-05-07T10:47:52.119Z,14.02
2019-05-07T10:48:51.430Z,14.14
2019-05-07T10:49:52.606Z,14.17
2019-05-07T10:50:51.715Z,14.20
2019-05-07T10:51:51.785Z,14.27
2019-05-07T10:52:52.826Z,14.31
2019-05-07T10:53:51.815Z,14.36
2019-05-07T10:54:59.769Z,14.36
2019-05-07T10:55:50.846Z,14.32
2019-05-07T10:56:52.419Z,14.46
2019-05-07T10:57:52.626Z,14.35
2019-05-07T10:58:52.191Z,14.49
2019-05-07T10:59:52.382Z,14.41
2019-05-07T11:00:52.313Z,14.36
2019-05-07T11:01:52.041Z,14.39
2019-05-07T11:02:51.850Z,14.39
2019-05-07T11:03:51.752Z,14.35
2019-05-07T11:04:50.238Z,14.36
2019-05-07T11:05:50.151Z,14.36
2019-05-07T11:06:52.158Z,14.31
2019-05-07T11:07:50.061Z,14.31
2019-05-07T11:08:51.413Z,14.29
2019-05-07T11:09:49.871Z,14.24
2019-05-07T11:10:49.704Z,14.28
2019-05-07T11:11:51.709Z,14.28
2019-05-07T11:12:51.591Z,14.23
2019-05-07T11:13:49.590Z,14.27
2019-05-07T11:14:51.385Z,14.31
2019-05-07T11:15:49.317Z,14.38
2019-05-07T11:16:49.354Z,14.39
2019-05-07T11:17:49.206Z,14.32
2019-05-07T11:18:49.078Z,14.44
2019-05-07T11:19:49.119Z,14.39
2019-05-07T11:20:50.619Z,14.23
2019-05-07T11:21:48.852Z,14.19
2019-05-07T11:22:48.891Z,14.13
2019-05-07T11:23:48.704Z,14.16
2019-05-07T11:24:48.739Z,14.16
2019-05-07T11:25:48.544Z,14.14
2019-05-07T11:26:48.469Z,14.16
2019-05-07T11:27:48.386Z,14.13
2019-05-07T11:28:48.460Z,14.19
2019-05-07T11:29:48.319Z,14.23
2019-05-07T11:30:48.164Z,14.24
2019-05-07T11:31:48.175Z,14.31
2019-05-07T11:32:48.078Z,14.38
2019-05-07T11:33:47.931Z,14.35
2019-05-07T11:34:47.996Z,14.38
2019-05-07T11:35:47.784Z,14.35
2019-05-07T11:36:47.825Z,14.47
2019-05-07T11:37:47.632Z,14.42
2019-05-07T11:38:47.545Z,14.57
2019-05-07T11:39:47.472Z,14.50
2019-05-07T11:40:47.529Z,14.57
2019-05-07T11:41:47.459Z,14.47
2019-05-07T11:42:47.239Z,14.59
2019-05-07T11:43:47.233Z,14.64
2019-05-07T11:44:47.244Z,14.80
2019-05-07T11:45:47.010Z,14.97
2019-05-07T11:46:46.998Z,15.05
2019-05-07T11:47:46.907Z,15.20
2019-05-07T11:48:46.779Z,15.27
2019-05-07T11:49:46.709Z,15.34
2019-05-07T11:50:54.202Z,15.51
2019-05-07T11:51:46.550Z,15.49
2019-05-07T11:52:46.534Z,15.60
2019-05-07T11:53:46.437Z,15.67
2019-05-07T11:54:46.319Z,15.79
2019-05-07T11:55:46.348Z,15.88
2019-05-07T11:56:46.299Z,15.96
2019-05-07T11:57:46.104Z,16.04
2019-05-07T11:58:46.109Z,16.16
2019-05-07T11:59:46.011Z,16.14
2019-05-07T12:00:45.864Z,16.06
2019-05-07T12:01:47.783Z,16.01
2019-05-07T12:02:47.307Z,15.94
2019-05-07T12:03:45.639Z,15.91
2019-05-07T12:04:45.641Z,15.78
2019-05-07T12:05:45.645Z,15.79
2019-05-07T12:06:45.408Z,15.60
2019-05-07T12:07:45.455Z,15.61
2019-05-07T12:08:51.538Z,15.55
2019-05-07T12:09:45.180Z,15.53
2019-05-07T12:10:45.219Z,15.59
2019-05-07T12:11:45.033Z,15.34
2019-05-07T12:12:45.087Z,15.34
2019-05-07T12:13:44.878Z,15.15
2019-05-07T12:14:44.799Z,14.88
2019-05-07T12:15:44.727Z,14.87
2019-05-07T12:16:44.797Z,14.94
2019-05-07T12:17:44.572Z,14.85
2019-05-07T12:18:44.616Z,14.72
2019-05-07T12:19:44.422Z,14.65
2019-05-07T12:20:44.345Z,14.64
2019-05-07T12:21:44.276Z,14.69
2019-05-07T12:22:44.338Z,14.85
2019-05-07T12:23:44.116Z,14.88
2019-05-07T12:24:45.729Z,14.97
2019-05-07T12:25:43.963Z,14.90
2019-05-07T12:26:43.889Z,14.94
2019-05-07T12:27:43.821Z,15.06
2019-05-07T12:28:43.866Z,15.12
2019-05-07T12:29:43.663Z,15.06
2019-05-07T12:30:43.669Z,15.10
2019-05-07T12:31:43.510Z,15.13
2019-05-07T12:32:43.460Z,15.16
2019-05-07T12:33:43.356Z,15.16
2019-05-07T12:34:43.389Z,15.16
2019-05-07T12:35:43.205Z,15.15
2019-05-07T12:36:43.299Z,15.21
2019-05-07T12:37:46.223Z,15.18
2019-05-07T12:38:42.985Z,15.13
2019-05-07T12:39:42.903Z,15.09
2019-05-07T12:40:42.919Z,15.10
2019-05-07T12:41:42.749Z,15.12
2019-05-07T12:42:45.512Z,15.12
2019-05-07T12:43:42.597Z,15.08
2019-05-07T12:44:42.639Z,15.09
2019-05-07T12:45:42.445Z,15.06
2019-05-07T12:46:42.548Z,15.13
2019-05-07T12:47:42.290Z,15.13
2019-05-07T12:48:42.257Z,15.12
2019-05-07T12:49:42.996Z,15.13
2019-05-07T12:50:43.183Z,15.09
2019-05-07T12:51:42.707Z,14.91
2019-05-07T12:52:42.510Z,14.95
2019-05-07T12:53:42.436Z,14.93
2019-05-07T12:54:42.130Z,14.94
2019-05-07T12:55:42.862Z,14.87
2019-05-07T12:56:42.687Z,15.02
2019-05-07T12:57:42.074Z,14.95
2019-05-07T12:58:41.606Z,14.91
2019-05-07T12:59:42.603Z,14.90
2019-05-07T13:00:42.562Z,14.85
2019-05-07T13:01:42.204Z,14.69
2019-05-07T13:02:44.215Z,14.68
2019-05-07T13:03:42.769Z,14.72
2019-05-07T13:04:41.799Z,14.83
2019-05-07T13:05:41.763Z,14.79
2019-05-07T13:06:40.946Z,14.85